createdAt,value
2023-04-29T00:01:59.297Z,62.36
2023-04-29T00:05:05.465Z,62.65
2023-04-29T00:08:09.798Z,63.20
2023-04-29T00:11:13.821Z,63.71
2023-04-29T00:14:17.923Z,63.91
2023-04-29T00:17:21.876Z,63.96
2023-04-29T00:20:25.978Z,64.11
2023-04-29T00:23:29.882Z,64.21
2023-04-29T00:26:35.019Z,64.34
2023-04-29T00:29:38.980Z,64.81
2023-04-29T00:32:44.726Z,64.52
2023-04-29T00:35:48.912Z,64.41
2023-04-29T00:38:53.153Z,64.27
2023-04-29T00:41:57.154Z,63.67
2023-04-29T00:45:01.164Z,63.81
2023-04-29T00:48:05.260Z,63.72
2023-04-29T00:51:10.233Z,63.60
2023-04-29T00:54:14.333Z,63.67
2023-04-29T00:57:19.997Z,63.50
2023-04-29T01:00:26.383Z,63.64
2023-04-29T01:03:32.651Z,64.41
2023-04-29T01:06:58.571Z,64.78
2023-04-29T01:10:22.780Z,64.83
2023-04-29T01:13:40.489Z,64.60
2023-04-29T01:16:55.546Z,64.24
2023-04-29T01:20:00.969Z,63.98
2023-04-29T01:23:05.049Z,63.87
2023-04-29T01:26:09.344Z,63.74
2023-04-29T01:29:46.264Z,63.36
2023-04-29T01:33:03.473Z,63.43
2023-04-29T01:36:20.685Z,63.18
2023-04-29T01:39:46.011Z,62.95
2023-04-29T01:43:02.003Z,62.70
2023-04-29T01:46:09.539Z,62.78
2023-04-29T01:49:13.925Z,62.66
2023-04-29T01:52:18.169Z,62.54
2023-04-29T01:55:29.633Z,62.17
2023-04-29T01:58:47.989Z,61.92
2023-04-29T02:02:10.538Z,62.22
2023-04-29T02:05:18.432Z,62.11
2023-04-29T02:08:29.374Z,62.00
2023-04-29T02:11:33.542Z,61.92
2023-04-29T02:14:38.998Z,61.89
2023-04-29T02:17:43.444Z,61.97
2023-04-29T02:20:49.982Z,62.13
2023-04-29T02:23:54.637Z,62.08
2023-04-29T02:27:00.692Z,61.98
2023-04-29T02:30:06.404Z,61.99
2023-04-29T02:33:10.508Z,62.24
2023-04-29T02:36:14.586Z,62.02
2023-04-29T02:39:20.143Z,61.99
2023-04-29T02:42:24.271Z,61.88
2023-04-29T02:45:28.205Z,61.94
2023-04-29T02:48:32.185Z,61.95
2023-04-29T02:51:36.122Z,61.86
2023-04-29T02:54:40.221Z,61.91
2023-04-29T02:57:44.531Z,62.09
2023-04-29T03:00:48.553Z,62.11
2023-04-29T03:03:52.859Z,61.96
2023-04-29T03:06:57.095Z,61.99
2023-04-29T03:10:03.014Z,62.10
2023-04-29T03:13:07.687Z,61.90
2023-04-29T03:16:17.009Z,61.84
2023-04-29T03:19:21.398Z,61.91
2023-04-29T03:22:26.889Z,61.62
2023-04-29T03:25:31.325Z,61.60
2023-04-29T03:28:35.299Z,61.80
2023-04-29T03:31:39.333Z,62.01
2023-04-29T03:34:43.575Z,61.66
2023-04-29T03:38:07.867Z,61.62
2023-04-29T03:41:12.701Z,61.58
2023-04-29T03:44:16.734Z,61.51
2023-04-29T03:47:20.635Z,61.22
2023-04-29T03:50:26.276Z,61.50
2023-04-29T03:53:30.916Z,61.20
2023-04-29T03:56:34.917Z,61.19
2023-04-29T03:59:38.946Z,61.11
2023-04-29T04:02:43.119Z,61.11
2023-04-29T04:05:47.443Z,60.85
2023-04-29T04:08:52.420Z,61.22
2023-04-29T04:12:01.695Z,61.06
2023-04-29T04:15:06.879Z,60.86
2023-04-29T04:18:10.811Z,61.15
2023-04-29T04:21:15.819Z,60.88
2023-04-29T04:24:23.369Z,60.94
2023-04-29T04:27:27.554Z,60.85
2023-04-29T04:30:36.078Z,60.68
2023-04-29T04:33:41.007Z,60.44
2023-04-29T04:36:45.770Z,60.49
2023-04-29T04:39:50.052Z,60.18
2023-04-29T04:42:55.623Z,60.32
2023-04-29T04:46:00.448Z,60.16
2023-04-29T04:49:05.812Z,60.47
2023-04-29T04:52:12.092Z,60.24
2023-04-29T04:55:16.305Z,60.15
2023-04-29T04:58:22.176Z,60.07
2023-04-29T05:01:26.348Z,59.58
2023-04-29T05:04:30.558Z,59.32
2023-04-29T05:07:37.711Z,59.09
2023-04-29T05:10:42.375Z,58.99
2023-04-29T05:13:48.717Z,59.11
2023-04-29T05:16:53.283Z,59.16
2023-04-29T05:19:57.666Z,57.98
2023-04-29T05:23:02.720Z,57.71
2023-04-29T05:26:09.869Z,57.73
2023-04-29T05:29:14.015Z,57.61
2023-04-29T05:32:31.658Z,57.18
2023-04-29T05:35:35.741Z,56.74
2023-04-29T05:38:40.065Z,56.63
2023-04-29T05:41:46.046Z,56.56
2023-04-29T05:45:09.798Z,56.84
2023-04-29T05:48:14.096Z,56.54
2023-04-29T05:51:18.164Z,56.38
2023-04-29T05:54:22.180Z,56.17
2023-04-29T05:57:26.195Z,55.57
2023-04-29T06:00:31.956Z,55.19
2023-04-29T06:03:38.445Z,54.96
2023-04-29T06:07:06.015Z,54.49
2023-04-29T06:10:26.088Z,54.53
2023-04-29T06:13:31.026Z,54.17
2023-04-29T06:16:35.091Z,53.97
2023-04-29T06:19:39.260Z,53.79
2023-04-29T06:22:43.171Z,53.06
2023-04-29T06:25:47.378Z,52.59
2023-04-29T06:28:51.610Z,52.41
2023-04-29T06:31:56.382Z,52.64
2023-04-29T06:35:01.322Z,52.41
2023-04-29T06:38:24.024Z,52.07
2023-04-29T06:41:46.684Z,52.00
2023-04-29T06:45:10.043Z,51.33
2023-04-29T06:48:23.057Z,51.28
2023-04-29T06:51:28.039Z,50.74
2023-04-29T06:54:32.007Z,50.90
2023-04-29T06:57:36.990Z,50.01
2023-04-29T07:00:41.099Z,49.67
2023-04-29T07:03:45.356Z,49.96
2023-04-29T07:06:49.561Z,49.94
2023-04-29T07:09:54.606Z,50.17
2023-04-29T07:13:00.547Z,49.42
2023-04-29T07:16:05.125Z,49.19
2023-04-29T07:19:09.073Z,49.32
2023-04-29T07:22:13.161Z,49.24
2023-04-29T07:25:17.124Z,49.08
2023-04-29T07:28:21.236Z,48.46
2023-04-29T07:31:25.330Z,48.54
2023-04-29T07:34:29.586Z,48.46
2023-04-29T07:37:33.793Z,48.58
2023-04-29T07:40:37.695Z,48.07
2023-04-29T07:43:42.619Z,47.97
2023-04-29T07:46:46.898Z,48.31
2023-04-29T07:49:51.705Z,47.96
2023-04-29T07:52:57.845Z,47.50
2023-04-29T07:56:06.585Z,47.36
2023-04-29T07:59:10.696Z,47.24
2023-04-29T08:02:16.808Z,46.43
2023-04-29T08:05:22.599Z,45.81
2023-04-29T08:08:26.927Z,45.89
2023-04-29T08:11:30.968Z,45.12
2023-04-29T08:14:34.980Z,45.32
2023-04-29T08:17:39.050Z,44.76
2023-04-29T08:20:43.133Z,44.85
2023-04-29T08:23:47.231Z,44.84
2023-04-29T08:26:52.576Z,45.18
2023-04-29T08:29:56.697Z,44.91
2023-04-29T08:33:00.938Z,45.37
2023-04-29T08:36:06.086Z,45.00
2023-04-29T08:39:10.408Z,44.90
2023-04-29T08:42:14.387Z,44.78
2023-04-29T08:45:20.372Z,44.40
2023-04-29T08:48:26.763Z,44.00
2023-04-29T08:51:32.360Z,44.18
2023-04-29T08:54:36.381Z,44.07
2023-04-29T08:57:42.163Z,44.28
2023-04-29T09:00:46.576Z,44.16
2023-04-29T09:04:25.738Z,43.49
2023-04-29T09:07:32.096Z,43.25
2023-04-29T09:10:37.943Z,42.93
2023-04-29T09:13:41.913Z,42.61
2023-04-29T09:16:48.921Z,42.55
2023-04-29T09:19:52.957Z,42.56
2023-04-29T09:22:59.982Z,42.45
2023-04-29T09:26:04.061Z,42.19
2023-04-29T09:29:09.230Z,42.43
2023-04-29T09:32:19.971Z,42.71
2023-04-29T09:35:28.305Z,41.39
2023-04-29T09:38:32.374Z,41.57
2023-04-29T09:41:36.353Z,41.02
2023-04-29T09:44:42.559Z,40.41
2023-04-29T09:47:46.839Z,40.67
2023-04-29T09:51:02.295Z,39.79
2023-04-29T09:54:22.017Z,39.81
2023-04-29T09:57:42.630Z,39.74
2023-04-29T10:00:48.764Z,39.14
2023-04-29T10:03:55.627Z,38.61
2023-04-29T10:07:01.183Z,38.89
2023-04-29T10:10:06.494Z,39.23
2023-04-29T10:13:10.538Z,38.57
2023-04-29T10:16:31.438Z,39.22
2023-04-29T10:19:45.799Z,38.70
2023-04-29T10:22:52.164Z,37.94
2023-04-29T10:26:00.114Z,37.76
2023-04-29T10:29:05.530Z,37.85
2023-04-29T10:32:10.989Z,37.67
2023-04-29T10:35:16.758Z,37.72
2023-04-29T10:38:26.724Z,37.34
2023-04-29T10:41:37.266Z,37.14
2023-04-29T10:45:18.688Z,36.57
2023-04-29T10:48:24.748Z,36.68
2023-04-29T10:51:48.950Z,36.41
2023-04-29T10:55:03.987Z,36.46
2023-04-29T10:58:46.169Z,35.83
2023-04-29T11:01:52.276Z,35.78
2023-04-29T11:05:10.668Z,35.30
2023-04-29T11:08:24.317Z,34.92
2023-04-29T11:11:58.413Z,34.83
2023-04-29T11:15:05.125Z,35.08
2023-04-29T11:18:11.638Z,35.23
2023-04-29T11:21:15.776Z,34.33
2023-04-29T11:24:19.934Z,34.48
2023-04-29T11:27:26.798Z,34.27
2023-04-29T11:30:32.092Z,34.27
2023-04-29T11:33:36.404Z,34.13
2023-04-29T11:36:40.653Z,34.37
2023-04-29T11:39:44.693Z,34.45
2023-04-29T11:42:49.752Z,34.63
2023-04-29T11:45:54.338Z,34.78
2023-04-29T11:49:00.313Z,34.34
2023-04-29T11:52:04.565Z,35.00
2023-04-29T11:55:12.057Z,34.83
2023-04-29T11:58:16.868Z,35.05
2023-04-29T12:01:21.691Z,35.00
2023-04-29T12:04:26.272Z,34.93
2023-04-29T12:07:30.453Z,34.97
2023-04-29T12:10:36.933Z,34.97
2023-04-29T12:13:41.564Z,34.57
2023-04-29T12:16:46.486Z,34.87
2023-04-29T12:19:51.741Z,34.01
2023-04-29T12:22:55.940Z,32.92
2023-04-29T12:26:01.028Z,32.74
2023-04-29T12:29:05.211Z,33.04
2023-04-29T12:32:16.813Z,33.47
2023-04-29T12:35:22.048Z,33.32
2023-04-29T12:38:28.311Z,33.95
2023-04-29T12:41:42.404Z,33.74
2023-04-29T12:44:47.794Z,32.60
2023-04-29T12:47:52.174Z,32.61
2023-04-29T12:50:58.525Z,32.47
2023-04-29T12:54:04.297Z,32.20
2023-04-29T12:57:10.113Z,32.29
2023-04-29T13:00:15.697Z,32.19
2023-04-29T13:03:22.181Z,32.84
2023-04-29T13:06:27.407Z,32.26
2023-04-29T13:09:31.620Z,32.18
2023-04-29T13:12:35.730Z,32.57
2023-04-29T13:15:39.758Z,33.01
2023-04-29T13:18:53.668Z,32.91
2023-04-29T13:22:07.890Z,33.23
2023-04-29T13:25:12.416Z,32.78
2023-04-29T13:28:16.610Z,33.17
2023-04-29T13:31:21.261Z,33.43
2023-04-29T13:34:25.364Z,34.22
2023-04-29T13:37:29.381Z,34.95
2023-04-29T13:40:38.369Z,34.52
2023-04-29T13:43:43.634Z,34.68
2023-04-29T13:46:48.015Z,34.69
2023-04-29T13:53:23.641Z,34.91
2023-04-29T14:02:39.821Z,33.67
2023-04-29T14:05:44.571Z,33.62
2023-04-29T14:08:48.645Z,33.61
2023-04-29T14:11:52.678Z,33.00
2023-04-29T14:14:59.481Z,33.01
2023-04-29T14:18:04.418Z,33.03
2023-04-29T14:21:08.926Z,33.15
2023-04-29T14:24:13.439Z,32.74
2023-04-29T14:27:17.290Z,32.71
2023-04-29T14:30:21.685Z,32.77
2023-04-29T14:33:25.713Z,33.37
2023-04-29T14:36:29.644Z,34.43
2023-04-29T14:39:33.621Z,34.21
2023-04-29T14:42:37.736Z,33.99
2023-04-29T14:45:42.191Z,34.02
2023-04-29T14:48:46.382Z,34.18
2023-04-29T14:51:50.277Z,33.71
2023-04-29T14:54:54.647Z,34.37
2023-04-29T14:57:58.842Z,34.28
2023-04-29T15:01:02.853Z,34.06
2023-04-29T15:04:07.493Z,33.69
2023-04-29T15:07:15.824Z,34.29
2023-04-29T15:10:19.803Z,34.27
2023-04-29T15:13:23.821Z,34.14
2023-04-29T15:16:28.740Z,34.48
2023-04-29T15:19:32.893Z,35.07
2023-04-29T15:22:37.095Z,35.31
2023-04-29T15:25:40.991Z,35.05
2023-04-29T15:28:46.166Z,35.40
2023-04-29T15:31:50.254Z,35.12
2023-04-29T15:34:55.634Z,34.97
2023-04-29T15:37:59.657Z,35.35
2023-04-29T15:41:04.117Z,35.56
2023-04-29T15:44:08.087Z,35.77
2023-04-29T15:47:12.103Z,35.77
2023-04-29T15:50:16.428Z,35.86
2023-04-29T15:53:20.311Z,35.76
2023-04-29T15:56:25.564Z,36.03
2023-04-29T15:59:30.583Z,36.35
2023-04-29T16:02:34.701Z,35.82
2023-04-29T16:05:38.866Z,35.11
2023-04-29T16:08:42.776Z,35.21
2023-04-29T16:11:47.099Z,35.82
2023-04-29T16:14:51.544Z,36.11
2023-04-29T16:17:55.666Z,36.78
2023-04-29T16:20:59.682Z,37.01
2023-04-29T16:24:03.757Z,37.70
2023-04-29T16:27:07.667Z,37.76
2023-04-29T16:30:12.140Z,38.21
2023-04-29T16:33:16.501Z,38.79
2023-04-29T16:36:20.563Z,39.29
2023-04-29T16:39:24.571Z,39.56
2023-04-29T16:42:28.591Z,39.44
2023-04-29T16:45:32.837Z,39.99
2023-04-29T16:48:36.845Z,40.46
2023-04-29T16:51:40.948Z,40.37
2023-04-29T16:54:44.864Z,40.61
2023-04-29T16:57:48.811Z,42.40
2023-04-29T17:00:53.805Z,42.68
2023-04-29T17:03:58.065Z,42.06
2023-04-29T17:07:03.056Z,41.88
2023-04-29T17:10:08.284Z,42.18
2023-04-29T17:13:12.182Z,42.51
2023-04-29T17:16:17.069Z,42.18
2023-04-29T17:19:21.181Z,42.77
2023-04-29T17:22:25.200Z,43.10
2023-04-29T17:25:29.149Z,43.51
2023-04-29T17:28:33.140Z,43.98
2023-04-29T17:31:48.108Z,44.10
2023-04-29T17:34:53.245Z,44.39
2023-04-29T17:37:57.361Z,44.72
2023-04-29T17:41:02.331Z,44.56
2023-04-29T17:44:08.042Z,44.96
2023-04-29T17:47:12.801Z,45.14
2023-04-29T17:50:17.017Z,45.76
2023-04-29T17:53:21.012Z,46.34
2023-04-29T17:56:26.357Z,47.14
2023-04-29T17:59:30.895Z,47.10
2023-04-29T18:02:34.996Z,47.42
2023-04-29T18:05:39.336Z,48.08
2023-04-29T18:08:43.330Z,48.67
2023-04-29T18:11:47.463Z,49.60
2023-04-29T18:14:52.043Z,50.80
2023-04-29T18:17:56.133Z,52.44
2023-04-29T18:21:00.137Z,53.54
2023-04-29T18:24:04.241Z,52.58
2023-04-29T18:27:08.287Z,53.01
2023-04-29T18:30:13.292Z,53.05
2023-04-29T18:33:17.398Z,53.82
2023-04-29T18:36:21.633Z,53.89
2023-04-29T18:39:25.661Z,54.34
2023-04-29T18:42:30.742Z,54.76
2023-04-29T18:45:35.119Z,55.30
2023-04-29T18:48:40.591Z,56.48
2023-04-29T18:51:47.990Z,57.22
2023-04-29T18:54:52.391Z,57.39
2023-04-29T18:57:56.498Z,57.53
2023-04-29T19:01:02.700Z,58.11
2023-04-29T19:04:08.620Z,58.46
2023-04-29T19:07:13.858Z,58.53
2023-04-29T19:10:17.895Z,59.00
2023-04-29T19:13:22.127Z,59.33
2023-04-29T19:16:26.683Z,59.18
2023-04-29T19:19:30.967Z,59.16
2023-04-29T19:22:34.982Z,59.14
2023-04-29T19:25:39.311Z,59.15
2023-04-29T19:28:43.336Z,59.42
2023-04-29T19:31:47.376Z,59.61
2023-04-29T19:34:51.438Z,60.28
2023-04-29T19:37:55.568Z,60.37
2023-04-29T19:40:59.493Z,60.18
2023-04-29T19:44:03.505Z,60.05
2023-04-29T19:47:07.477Z,59.94
2023-04-29T19:50:11.490Z,60.00
2023-04-29T19:53:15.471Z,60.25
2023-04-29T19:56:20.069Z,60.79
2023-04-29T19:59:24.004Z,61.11
2023-04-29T20:02:28.021Z,61.15
2023-04-29T20:05:32.212Z,60.90
2023-04-29T20:08:37.301Z,60.80
2023-04-29T20:11:41.293Z,61.00
2023-04-29T20:14:45.709Z,61.10
2023-04-29T20:17:49.759Z,61.45
2023-04-29T20:20:53.748Z,61.34
2023-04-29T20:23:57.675Z,61.95
2023-04-29T20:27:01.665Z,61.76
2023-04-29T20:30:06.575Z,62.02
2023-04-29T20:33:10.605Z,62.32
2023-04-29T20:36:14.557Z,62.50
2023-04-29T20:39:18.758Z,62.64
2023-04-29T20:42:22.682Z,62.98
2023-04-29T20:45:26.790Z,62.77
2023-04-29T20:48:30.902Z,62.79
2023-04-29T20:51:34.921Z,63.04
2023-04-29T20:54:39.179Z,63.10
2023-04-29T20:57:43.141Z,62.88
2023-04-29T21:00:47.052Z,62.96
2023-04-29T21:03:52.212Z,62.55
2023-04-29T21:06:56.231Z,62.59
2023-04-29T21:10:00.193Z,62.61
2023-04-29T21:13:04.370Z,62.67
2023-04-29T21:16:08.546Z,62.53
2023-04-29T21:19:12.585Z,62.55
2023-04-29T21:22:16.523Z,62.33
2023-04-29T21:25:20.531Z,63.03
2023-04-29T21:28:24.553Z,63.28
2023-04-29T21:31:30.260Z,63.29
2023-04-29T21:34:35.454Z,63.80
2023-04-29T21:37:39.466Z,63.60
2023-04-29T21:40:46.631Z,63.80
2023-04-29T21:43:50.998Z,63.46
2023-04-29T21:46:55.228Z,63.65
2023-04-29T21:49:59.403Z,64.22
2023-04-29T21:53:03.610Z,64.46
2023-04-29T21:56:07.937Z,64.77
2023-04-29T21:59:11.820Z,65.13
2023-04-29T22:02:22.393Z,64.49
2023-04-29T22:05:26.982Z,64.90
2023-04-29T22:08:30.937Z,64.92
2023-04-29T22:11:35.005Z,65.18
2023-04-29T22:14:39.011Z,65.48
2023-04-29T22:17:43.102Z,65.65
2023-04-29T22:20:47.232Z,65.56
2023-04-29T22:23:51.269Z,65.51
2023-04-29T22:26:55.405Z,66.30
2023-04-29T22:29:59.577Z,66.06
2023-04-29T22:33:03.655Z,65.60
2023-04-29T22:36:07.840Z,65.61
2023-04-29T22:39:11.964Z,65.64
2023-04-29T22:42:15.874Z,65.50
2023-04-29T22:45:19.824Z,66.07
2023-04-29T22:48:26.578Z,66.09
2023-04-29T22:51:32.325Z,66.28
2023-04-29T22:54:36.337Z,66.26
2023-04-29T22:57:40.465Z,65.77
2023-04-29T23:00:52.870Z,65.92
2023-04-29T23:03:56.989Z,65.98
2023-04-29T23:07:00.902Z,65.13
2023-04-29T23:10:05.923Z,65.42
2023-04-29T23:13:09.866Z,65.64
2023-04-29T23:16:13.925Z,65.78
2023-04-29T23:19:17.943Z,65.10
2023-04-29T23:22:21.876Z,65.88
2023-04-29T23:25:26.126Z,65.50
2023-04-29T23:28:30.178Z,64.60
2023-04-29T23:31:34.251Z,64.10
2023-04-29T23:34:38.214Z,64.16
2023-04-29T23:37:42.248Z,64.41
2023-04-29T23:40:47.078Z,64.19
2023-04-29T23:43:51.042Z,64.15
2023-04-29T23:46:55.058Z,64.32
2023-04-29T23:49:58.958Z,64.20
2023-04-29T23:53:03.184Z,64.12
2023-04-29T23:56:08.068Z,63.99
2023-04-29T23:59:12.035Z,63.90
